Forside
METAR-TAF:

METAR-TAF

Lufthavne :

Versailles, Ohio, USA

Breddekreds: 40-12-16N, længdekreds: 084-31-55W, højde: 307 m

Aktuelle vejr

Denne rapport blev lavet for 18 minutter siden, kl. 21:50 UTC
Vind 9 kt fra sydvest
Temperatur 0°C
Fugtighed 100%
Tryk 1013 hPa
Sigt: 16.1 km
Overskyet i en højde af 1000 ft

METAR: KVES 262150Z AUTO 23009KT 10SM OVC010 00/00 A2990 RMK AO2

Tid: 17:08 (22:08 UTC)


TAF: fraværende

Vejrobservationer og prognoser fra mere end 4000 lufthavne (METAR og TAF).

De gule og røde prikker repræsenterer de meteorologiske stationer.

Flyt musen over at se navnet på stationen.

Så klik over at se vejr observationer og prognoser.

At skifte det kort: Klik på de grønne knapper med et sort kors for at zoome ind; på den grønne knap med en bindestreg for at zoome ud; eller på de grønne pile for tilstødende kort.


METAR-TAF: